createdAt,value
2018-06-12T00:02:07.188Z,14.30
2018-06-12T00:04:35.732Z,16.70
2018-06-12T00:07:04.360Z,18.53
2018-06-12T00:09:32.896Z,12.93
2018-06-12T00:12:01.501Z,12.07
2018-06-12T00:14:30.120Z,12.63
2018-06-12T00:16:58.776Z,12.27
2018-06-12T00:19:27.350Z,11.70
2018-06-12T00:21:55.953Z,13.87
2018-06-12T00:24:24.531Z,16.17
2018-06-12T00:26:53.145Z,12.23
2018-06-12T00:29:21.709Z,16.20
2018-06-12T00:31:50.300Z,14.10
2018-06-12T00:34:18.864Z,15.47
2018-06-12T00:36:47.407Z,13.97
2018-06-12T00:39:15.956Z,12.70
2018-06-12T00:41:44.517Z,13.40
2018-06-12T00:44:13.073Z,13.17
2018-06-12T00:46:41.660Z,12.03
2018-06-12T00:49:10.260Z,17.67
2018-06-12T00:51:38.832Z,12.27
2018-06-12T00:54:07.487Z,16.43
2018-06-12T00:56:47.279Z,13.90
2018-06-12T00:59:15.858Z,14.97
2018-06-12T01:01:44.429Z,11.27
2018-06-12T01:04:13.100Z,12.07
2018-06-12T01:06:41.304Z,14.07
2018-06-12T01:09:09.885Z,18.57
2018-06-12T01:11:39.056Z,20.57
2018-06-12T01:14:07.663Z,14.03
2018-06-12T01:16:36.223Z,13.70
2018-06-12T01:19:04.805Z,14.10
2018-06-12T01:21:33.356Z,12.00
2018-06-12T01:24:01.938Z,11.73
2018-06-12T01:26:30.473Z,11.47
2018-06-12T01:28:59.057Z,13.40
2018-06-12T01:31:27.621Z,13.83
2018-06-12T01:33:56.216Z,14.57
2018-06-12T01:36:24.764Z,12.73
2018-06-12T01:38:53.341Z,15.03
2018-06-12T01:41:21.871Z,12.97
2018-06-12T01:43:50.449Z,12.17
2018-06-12T01:46:19.041Z,13.30
2018-06-12T01:48:47.607Z,13.80
2018-06-12T01:51:16.200Z,13.63
2018-06-12T01:53:44.760Z,16.47
2018-06-12T01:56:13.332Z,14.20
2018-06-12T01:58:41.917Z,16.73
2018-06-12T02:01:10.525Z,16.17
2018-06-12T02:03:39.116Z,15.67
2018-06-12T02:06:07.681Z,13.93
2018-06-12T02:08:36.241Z,14.37
2018-06-12T02:11:04.884Z,14.07
2018-06-12T02:13:33.434Z,14.30
2018-06-12T02:16:02.024Z,12.87
2018-06-12T02:18:30.560Z,15.10
2018-06-12T02:20:59.139Z,14.70
2018-06-12T02:23:27.696Z,14.00
2018-06-12T02:25:56.277Z,12.60
2018-06-12T02:28:24.820Z,10.50
2018-06-12T02:30:53.392Z,13.10
2018-06-12T02:33:21.976Z,17.40
2018-06-12T02:35:50.535Z,25.73
2018-06-12T02:38:19.099Z,17.23
2018-06-12T02:40:47.677Z,12.50
2018-06-12T02:43:16.224Z,16.60
2018-06-12T02:45:44.790Z,11.83
2018-06-12T02:48:13.365Z,12.40
2018-06-12T02:50:41.950Z,10.90
2018-06-12T02:53:10.484Z,11.20
2018-06-12T02:55:39.085Z,11.07
2018-06-12T02:58:07.678Z,11.50
2018-06-12T03:00:36.270Z,11.10
2018-06-12T03:03:04.831Z,10.53
2018-06-12T03:05:33.444Z,11.23
2018-06-12T03:08:02.451Z,15.50
2018-06-12T03:10:31.066Z,12.63
2018-06-12T03:12:59.630Z,12.60
2018-06-12T03:15:28.319Z,10.93
2018-06-12T03:17:56.892Z,12.63
2018-06-12T03:20:47.244Z,12.40
2018-06-12T03:23:15.880Z,11.47
2018-06-12T03:25:44.500Z,13.80
2018-06-12T03:28:13.104Z,20.10
2018-06-12T03:30:41.718Z,12.10
2018-06-12T03:33:10.306Z,12.83
2018-06-12T03:35:38.894Z,13.43
2018-06-12T03:38:07.558Z,14.53
2018-06-12T03:40:36.151Z,13.80
2018-06-12T03:43:04.851Z,14.20
2018-06-12T03:45:33.409Z,12.70
2018-06-12T03:48:01.980Z,13.67
2018-06-12T03:50:30.545Z,13.97
2018-06-12T03:52:59.193Z,12.73
2018-06-12T03:55:27.749Z,13.37
2018-06-12T03:57:56.341Z,12.90
2018-06-12T04:00:24.910Z,13.57
2018-06-12T04:02:53.505Z,14.87
2018-06-12T04:05:22.075Z,13.83
2018-06-12T04:07:50.661Z,14.73
2018-06-12T04:10:19.240Z,13.70
2018-06-12T04:12:47.852Z,13.50
2018-06-12T04:15:16.428Z,14.63
2018-06-12T04:17:45.013Z,14.33
2018-06-12T04:20:13.597Z,13.70
2018-06-12T04:22:42.184Z,19.20
2018-06-12T04:25:10.825Z,12.10
2018-06-12T04:27:39.787Z,13.03
2018-06-12T04:30:08.419Z,13.50
2018-06-12T04:32:37.065Z,14.10
2018-06-12T04:35:05.917Z,14.23
2018-06-12T04:37:34.514Z,14.80
2018-06-12T04:40:03.102Z,14.97
2018-06-12T04:42:31.685Z,14.50
2018-06-12T04:45:00.211Z,13.20
2018-06-12T04:47:28.781Z,14.37
2018-06-12T04:49:57.356Z,14.60
2018-06-12T04:52:25.912Z,14.00
2018-06-12T04:54:54.525Z,13.87
2018-06-12T04:57:35.652Z,13.20
2018-06-12T05:00:04.305Z,13.70
2018-06-12T05:02:32.893Z,15.37
2018-06-12T05:05:01.483Z,14.50
2018-06-12T05:07:30.094Z,15.13
2018-06-12T05:09:58.716Z,16.37
2018-06-12T05:12:27.263Z,17.37
2018-06-12T05:14:55.835Z,16.93
2018-06-12T05:17:24.429Z,19.10
2018-06-12T05:19:53.029Z,16.50
2018-06-12T05:22:21.602Z,18.63
2018-06-12T05:24:50.182Z,19.50
2018-06-12T05:27:18.769Z,21.23
2018-06-12T05:29:47.376Z,19.87
2018-06-12T05:32:15.975Z,20.03
2018-06-12T05:34:44.648Z,18.67
2018-06-12T05:37:13.241Z,20.10
2018-06-12T05:39:41.850Z,20.30
2018-06-12T05:42:10.413Z,21.80
2018-06-12T05:44:39.003Z,21.10
2018-06-12T05:47:07.567Z,19.50
2018-06-12T05:49:36.299Z,16.77
2018-06-12T05:52:04.970Z,12.90
2018-06-12T05:54:33.683Z,12.97
2018-06-12T05:57:02.299Z,14.63
2018-06-12T05:59:30.946Z,12.23
2018-06-12T06:01:59.572Z,13.93
2018-06-12T06:04:28.166Z,10.67
2018-06-12T06:06:56.760Z,11.20
2018-06-12T06:09:25.320Z,10.13
2018-06-12T06:11:53.928Z,9.33
2018-06-12T06:14:22.517Z,9.00
2018-06-12T06:16:51.118Z,7.70
2018-06-12T06:19:19.709Z,8.60
2018-06-12T06:21:54.729Z,8.13
2018-06-12T06:24:23.282Z,8.77
2018-06-12T06:26:51.864Z,8.20
2018-06-12T06:29:20.468Z,7.33
2018-06-12T06:31:49.094Z,7.90
2018-06-12T06:53:54.961Z,7.47
2018-06-12T06:56:23.549Z,7.30
2018-06-12T06:58:52.173Z,8.30
2018-06-12T07:01:20.743Z,8.57
2018-06-12T07:03:49.300Z,8.53
2018-06-12T07:06:17.885Z,9.33
2018-06-12T07:08:46.593Z,11.17
2018-06-12T07:11:15.175Z,9.90
2018-06-12T07:13:43.721Z,10.33
2018-06-12T07:16:12.355Z,11.77
2018-06-12T07:18:40.945Z,12.63
2018-06-12T07:21:18.498Z,13.20
2018-06-12T07:23:47.196Z,11.97
2018-06-12T07:26:15.899Z,11.23
2018-06-12T07:28:44.537Z,12.60
2018-06-12T07:31:13.160Z,12.40
2018-06-12T07:33:41.799Z,12.47
2018-06-12T07:36:10.370Z,12.07
2018-06-12T07:38:39.021Z,12.13
2018-06-12T07:41:07.630Z,14.03
2018-06-12T07:43:36.237Z,12.80
2018-06-12T07:46:05.041Z,11.10
2018-06-12T07:48:33.654Z,11.87
2018-06-12T07:51:02.211Z,11.23
2018-06-12T07:53:30.774Z,10.70
2018-06-12T07:55:59.437Z,9.63
2018-06-12T07:58:27.990Z,8.77
2018-06-12T08:00:56.593Z,9.17
2018-06-12T08:03:25.187Z,9.10
2018-06-12T08:05:53.720Z,8.20
2018-06-12T08:08:22.307Z,7.30
2018-06-12T08:10:50.912Z,8.20
2018-06-12T08:13:19.480Z,8.63
2018-06-12T08:15:48.015Z,9.10
2018-06-12T08:18:16.603Z,7.87
2018-06-12T08:20:45.133Z,7.20
2018-06-12T08:23:13.715Z,6.20
2018-06-12T08:25:42.266Z,6.17
2018-06-12T08:28:10.857Z,5.80
2018-06-12T08:30:39.492Z,6.00
2018-06-12T08:33:08.049Z,6.13
2018-06-12T08:35:36.680Z,5.33
2018-06-12T08:38:05.261Z,6.70
2018-06-12T08:40:33.828Z,6.23
2018-06-12T08:43:02.408Z,6.80
2018-06-12T08:45:30.653Z,6.33
2018-06-12T08:47:59.204Z,6.47
2018-06-12T08:50:27.836Z,6.90
2018-06-12T08:52:56.354Z,6.57
2018-06-12T08:55:24.925Z,7.17
2018-06-12T08:57:53.534Z,6.83
2018-06-12T09:00:22.100Z,7.20
2018-06-12T09:02:50.646Z,6.83
2018-06-12T09:05:19.290Z,7.40
2018-06-12T09:07:47.860Z,7.47
2018-06-12T09:10:16.457Z,6.97
2018-06-12T09:12:45.042Z,6.83
2018-06-12T09:15:13.652Z,6.83
2018-06-12T09:17:42.192Z,6.70
2018-06-12T09:20:10.802Z,6.30
2018-06-12T09:22:39.344Z,6.73
2018-06-12T09:25:08.006Z,6.10
2018-06-12T09:27:41.881Z,6.00
2018-06-12T09:30:10.431Z,7.43
2018-06-12T09:32:39.074Z,6.97
2018-06-12T09:35:07.682Z,6.73
2018-06-12T09:37:36.278Z,6.73
2018-06-12T09:40:11.445Z,6.63
2018-06-12T09:42:40.022Z,6.70
2018-06-12T09:45:08.605Z,6.83
2018-06-12T09:47:37.156Z,7.10
2018-06-12T09:50:05.754Z,7.10
2018-06-12T09:52:34.320Z,6.33
2018-06-12T09:55:02.879Z,6.43
2018-06-12T09:57:31.461Z,7.43
2018-06-12T10:00:00.085Z,6.90
2018-06-12T10:02:28.695Z,7.20
2018-06-12T10:05:00.269Z,7.03
2018-06-12T10:07:28.918Z,6.47
2018-06-12T10:09:57.503Z,6.70
2018-06-12T10:12:26.099Z,6.30
2018-06-12T10:14:54.640Z,6.10
2018-06-12T10:17:23.248Z,6.50
2018-06-12T10:19:51.897Z,7.07
2018-06-12T10:22:20.461Z,6.10
2018-06-12T10:24:49.013Z,6.70
2018-06-12T10:27:17.644Z,6.83
2018-06-12T10:29:46.195Z,5.60
2018-06-12T10:32:14.801Z,6.17
2018-06-12T10:34:43.397Z,6.20
2018-06-12T10:37:12.101Z,5.80
2018-06-12T10:39:40.664Z,5.47
2018-06-12T10:42:09.282Z,5.73
2018-06-12T10:44:37.869Z,5.50
2018-06-12T10:47:06.499Z,5.23
2018-06-12T10:49:35.059Z,5.03
2018-06-12T10:52:03.646Z,4.50
2018-06-12T10:54:32.231Z,4.10
2018-06-12T10:57:00.801Z,3.97
2018-06-12T10:59:29.332Z,4.00
2018-06-12T11:01:57.946Z,4.37
2018-06-12T11:04:26.487Z,4.43
2018-06-12T11:06:55.073Z,4.40
2018-06-12T11:09:23.627Z,4.00
2018-06-12T11:11:52.164Z,4.10
2018-06-12T11:14:20.751Z,4.07
2018-06-12T11:16:49.317Z,4.37
2018-06-12T11:19:17.871Z,4.80
2018-06-12T11:21:46.397Z,4.47
2018-06-12T11:24:14.969Z,4.17
2018-06-12T11:26:43.532Z,4.23
2018-06-12T11:29:12.095Z,3.73
2018-06-12T11:31:40.690Z,4.23
2018-06-12T11:34:09.301Z,3.83
2018-06-12T11:36:37.884Z,4.10
2018-06-12T11:39:13.083Z,4.30
2018-06-12T11:41:41.681Z,4.00
2018-06-12T11:44:10.295Z,4.20
2018-06-12T11:46:38.855Z,4.03
2018-06-12T11:49:07.438Z,4.10
2018-06-12T11:51:36.005Z,3.97
2018-06-12T11:54:04.604Z,4.57
2018-06-12T11:56:33.215Z,4.00
2018-06-12T11:59:01.814Z,4.00
2018-06-12T12:01:30.380Z,3.33
2018-06-12T12:03:58.966Z,3.30
2018-06-12T12:06:27.533Z,3.00
2018-06-12T12:08:56.173Z,3.57
2018-06-12T12:11:31.319Z,3.10
2018-06-12T12:13:59.900Z,3.50
2018-06-12T12:16:28.453Z,3.40
2018-06-12T12:18:57.037Z,3.60
2018-06-12T12:21:25.604Z,3.50
2018-06-12T12:23:54.209Z,3.30
2018-06-12T12:26:22.763Z,3.50
2018-06-12T12:28:51.312Z,3.53
2018-06-12T12:31:19.893Z,3.63
2018-06-12T12:33:48.465Z,3.63
2018-06-12T12:36:17.031Z,3.67
2018-06-12T12:38:45.577Z,3.87
2018-06-12T12:41:14.174Z,4.47
2018-06-12T12:43:42.754Z,3.67
2018-06-12T12:46:11.316Z,3.63
2018-06-12T12:48:39.865Z,4.30
2018-06-12T12:51:08.428Z,4.60
2018-06-12T12:53:36.971Z,5.00
2018-06-12T12:56:05.577Z,5.47
2018-06-12T12:58:34.092Z,5.13
2018-06-12T13:01:02.673Z,5.20
2018-06-12T13:03:31.212Z,6.03
2018-06-12T13:05:59.787Z,6.50
2018-06-12T13:08:28.332Z,6.33
2018-06-12T13:10:56.920Z,6.57
2018-06-12T13:13:25.677Z,6.40
2018-06-12T13:15:54.231Z,7.03
2018-06-12T13:18:22.846Z,6.80
2018-06-12T13:20:51.522Z,8.03
2018-06-12T13:23:20.069Z,8.13
2018-06-12T13:25:48.636Z,7.83
2018-06-12T13:28:17.328Z,8.87
2018-06-12T13:30:45.904Z,8.00
2018-06-12T13:33:15.037Z,8.43
2018-06-12T13:35:43.597Z,9.17
2018-06-12T13:38:12.127Z,9.30
2018-06-12T13:40:40.721Z,9.47
2018-06-12T13:43:09.268Z,9.80
2018-06-12T13:45:37.828Z,10.87
2018-06-12T13:48:06.420Z,10.97
2018-06-12T13:50:34.969Z,10.20
2018-06-12T13:53:03.584Z,11.70
2018-06-12T13:55:32.137Z,11.47
2018-06-12T13:58:00.704Z,12.57
2018-06-12T14:00:29.368Z,11.07
2018-06-12T14:02:57.949Z,11.67
2018-06-12T14:05:26.500Z,11.27
2018-06-12T14:07:55.065Z,11.67
2018-06-12T14:10:23.604Z,10.60
2018-06-12T14:12:52.166Z,11.67
2018-06-12T14:15:20.733Z,12.93
2018-06-12T14:17:49.329Z,10.90
2018-06-12T14:20:17.900Z,12.20
2018-06-12T14:22:46.493Z,12.13
2018-06-12T14:25:15.090Z,12.90
2018-06-12T14:27:43.653Z,12.43
2018-06-12T14:30:12.214Z,13.60
2018-06-12T14:32:40.821Z,14.30
2018-06-12T14:35:09.445Z,13.17
2018-06-12T14:37:38.093Z,14.40
2018-06-12T14:40:06.695Z,14.10
2018-06-12T14:42:35.329Z,14.50
2018-06-12T14:45:04.012Z,14.23
2018-06-12T14:47:32.628Z,15.70
2018-06-12T14:50:01.233Z,16.20
2018-06-12T14:52:29.852Z,16.50
2018-06-12T14:54:58.452Z,14.40
2018-06-12T14:57:27.046Z,13.43
2018-06-12T14:59:55.633Z,13.90
2018-06-12T15:02:24.200Z,15.10
2018-06-12T15:04:52.802Z,13.60
2018-06-12T15:07:21.406Z,15.50
2018-06-12T15:09:49.985Z,14.47
2018-06-12T15:12:18.548Z,12.97
2018-06-12T15:14:47.284Z,13.57
2018-06-12T15:17:15.871Z,13.43
2018-06-12T15:19:44.446Z,13.37
2018-06-12T15:22:13.004Z,13.20
2018-06-12T15:24:41.596Z,14.00
2018-06-12T15:27:16.796Z,15.57
2018-06-12T15:29:45.410Z,15.63
2018-06-12T15:32:13.989Z,16.13
2018-06-12T15:34:42.617Z,15.13
2018-06-12T15:37:11.725Z,15.57
2018-06-12T15:39:40.320Z,11.73
2018-06-12T15:42:08.889Z,13.63
2018-06-12T15:44:37.660Z,12.73
2018-06-12T15:47:06.221Z,12.27
2018-06-12T15:49:34.824Z,13.47
2018-06-12T15:52:03.422Z,10.50
2018-06-12T15:54:33.238Z,13.63
2018-06-12T15:57:01.891Z,11.77
2018-06-12T15:59:30.538Z,12.07
2018-06-12T16:01:59.405Z,12.43
2018-06-12T16:04:28.117Z,12.47
2018-06-12T16:06:56.688Z,12.40
2018-06-12T16:09:25.297Z,13.30
2018-06-12T16:11:53.902Z,12.10
2018-06-12T16:14:22.528Z,12.43
2018-06-12T16:16:51.096Z,12.77
2018-06-12T16:19:19.732Z,12.77
2018-06-12T16:21:48.334Z,13.03
2018-06-12T16:24:16.912Z,13.37
2018-06-12T16:26:45.556Z,14.20
2018-06-12T16:29:14.160Z,13.53
2018-06-12T16:31:42.818Z,12.70
2018-06-12T16:34:14.212Z,13.80
2018-06-12T16:36:42.511Z,13.87
2018-06-12T16:39:11.104Z,13.27
2018-06-12T16:41:39.753Z,14.13
2018-06-12T16:44:08.323Z,13.43
2018-06-12T16:46:36.930Z,12.23
2018-06-12T16:49:05.477Z,12.77
2018-06-12T16:51:34.060Z,12.07
2018-06-12T16:54:02.631Z,13.40
2018-06-12T16:56:31.305Z,12.30
2018-06-12T16:58:59.882Z,12.40
2018-06-12T17:01:28.480Z,12.30
2018-06-12T17:03:57.037Z,13.20
2018-06-12T17:06:25.640Z,10.37
2018-06-12T17:08:54.248Z,12.40
2018-06-12T17:11:22.825Z,11.97
2018-06-12T17:13:51.404Z,10.93
2018-06-12T17:16:20.208Z,13.60
2018-06-12T17:18:48.809Z,11.50
2018-06-12T17:21:17.441Z,11.30
2018-06-12T17:23:46.090Z,13.63
2018-06-12T17:26:14.725Z,11.10
2018-06-12T17:28:43.308Z,11.07
2018-06-12T17:31:11.953Z,10.90
2018-06-12T17:33:40.578Z,9.60
2018-06-12T17:36:09.222Z,11.40
2018-06-12T17:38:37.808Z,9.90
2018-06-12T17:41:06.725Z,10.60
2018-06-12T17:44:40.480Z,13.10
2018-06-12T17:47:09.101Z,11.00
2018-06-12T17:49:37.376Z,10.20
2018-06-12T17:52:06.005Z,10.60
2018-06-12T17:54:34.573Z,10.10
2018-06-12T17:57:03.230Z,9.90
2018-06-12T17:59:31.857Z,11.80
2018-06-12T18:02:00.664Z,9.23
2018-06-12T18:04:29.226Z,12.17
2018-06-12T18:06:57.845Z,9.70
2018-06-12T18:09:26.485Z,9.40
2018-06-12T18:11:55.178Z,12.30
2018-06-12T18:14:23.759Z,8.60
2018-06-12T18:16:52.385Z,9.93
2018-06-12T18:19:21.037Z,12.10
2018-06-12T18:21:49.727Z,10.00
2018-06-12T18:24:18.340Z,11.37
2018-06-12T18:26:46.956Z,11.10
2018-06-12T18:29:15.550Z,9.83
2018-06-12T18:31:44.166Z,12.03
2018-06-12T18:34:12.824Z,9.20
2018-06-12T18:36:41.468Z,9.37
2018-06-12T18:39:10.161Z,11.40
2018-06-12T18:41:38.786Z,8.10
2018-06-12T18:44:07.457Z,10.47
2018-06-12T18:46:36.124Z,10.50
2018-06-12T18:49:04.777Z,8.50
2018-06-12T18:51:33.398Z,11.27
2018-06-12T18:54:02.131Z,9.13
2018-06-12T18:56:30.769Z,9.17
2018-06-12T18:58:59.470Z,9.87
2018-06-12T19:01:28.090Z,8.03
2018-06-12T19:03:56.683Z,8.63
2018-06-12T19:06:25.337Z,9.57
2018-06-12T19:08:54.039Z,8.67
2018-06-12T19:11:22.725Z,10.87
2018-06-12T19:13:50.988Z,8.63
2018-06-12T19:16:19.631Z,10.47
2018-06-12T19:18:48.292Z,12.33
2018-06-12T19:21:16.961Z,9.57
2018-06-12T19:23:45.600Z,11.57
2018-06-12T19:26:14.259Z,12.00
2018-06-12T19:28:42.969Z,10.43
2018-06-12T19:31:11.625Z,12.37
2018-06-12T19:33:40.321Z,10.40
2018-06-12T19:36:08.896Z,10.03
2018-06-12T19:38:37.540Z,12.00
2018-06-12T19:41:06.194Z,9.50
2018-06-12T19:43:34.824Z,10.57
2018-06-12T19:46:03.490Z,11.10
2018-06-12T19:48:32.134Z,10.20
2018-06-12T19:51:00.758Z,10.70
2018-06-12T19:53:29.469Z,10.93
2018-06-12T19:55:58.222Z,9.17
2018-06-12T19:58:26.836Z,10.77
2018-06-12T20:00:55.482Z,9.90
2018-06-12T20:03:24.131Z,8.87
2018-06-12T20:05:52.768Z,10.03
2018-06-12T20:08:21.396Z,9.00
2018-06-12T20:10:50.069Z,11.27
2018-06-12T20:13:18.677Z,10.70
2018-06-12T20:15:47.370Z,9.47
2018-06-12T20:18:15.987Z,11.70
2018-06-12T20:20:45.125Z,10.33
2018-06-12T20:23:13.739Z,10.27
2018-06-12T20:25:42.445Z,12.60
2018-06-12T20:28:11.035Z,9.90
2018-06-12T20:30:39.737Z,12.07
2018-06-12T20:33:08.380Z,12.03
2018-06-12T20:35:36.995Z,12.50
2018-06-12T20:38:05.658Z,14.50
2018-06-12T20:40:34.311Z,11.20
2018-06-12T20:43:02.912Z,12.93
2018-06-12T20:45:31.592Z,14.53
2018-06-12T20:48:00.301Z,11.63
2018-06-12T20:50:28.976Z,13.97
2018-06-12T20:52:57.611Z,15.13
2018-06-12T20:55:25.916Z,13.00
2018-06-12T20:57:54.513Z,14.80
2018-06-12T21:00:23.197Z,12.93
2018-06-12T21:02:51.808Z,14.00
2018-06-12T21:05:20.429Z,15.70
2018-06-12T21:07:49.054Z,12.83
2018-06-12T21:10:17.822Z,14.57
2018-06-12T21:12:46.432Z,15.03
2018-06-12T21:15:15.034Z,12.90
2018-06-12T21:17:43.649Z,15.43
2018-06-12T21:20:12.259Z,15.13
2018-06-12T21:22:40.872Z,14.17
2018-06-12T21:25:09.510Z,15.00
2018-06-12T21:27:38.166Z,13.33
2018-06-12T21:30:06.862Z,14.13
2018-06-12T21:32:35.527Z,13.93
2018-06-12T21:35:04.259Z,14.90
2018-06-12T21:37:32.897Z,14.30
2018-06-12T21:40:01.497Z,14.03
2018-06-12T21:42:30.126Z,15.10
2018-06-12T21:44:58.843Z,16.10
2018-06-12T21:47:27.442Z,16.43
2018-06-12T21:49:56.029Z,16.90
2018-06-12T21:52:24.647Z,16.97
2018-06-12T21:54:53.225Z,17.33
2018-06-12T21:57:21.826Z,19.90
2018-06-12T21:59:50.390Z,18.57
2018-06-12T22:02:18.975Z,17.57
2018-06-12T22:04:47.562Z,18.30
2018-06-12T22:07:16.160Z,20.07
2018-06-12T22:09:44.750Z,18.40
2018-06-12T22:12:13.336Z,19.50
2018-06-12T22:14:41.916Z,19.53
2018-06-12T22:17:10.497Z,20.50
2018-06-12T22:19:39.049Z,20.47
2018-06-12T22:22:07.631Z,21.57
2018-06-12T22:24:36.183Z,20.33
2018-06-12T22:27:04.828Z,19.67
2018-06-12T22:29:33.371Z,21.30
2018-06-12T22:32:02.047Z,21.33
2018-06-12T22:34:30.637Z,20.00
2018-06-12T22:36:59.240Z,21.27
2018-06-12T22:39:27.832Z,20.50
2018-06-12T22:41:56.416Z,19.10
2018-06-12T22:44:24.984Z,20.90
2018-06-12T22:46:53.594Z,19.60
2018-06-12T22:49:22.180Z,20.43
2018-06-12T22:51:50.850Z,21.63
2018-06-12T22:54:19.427Z,22.43
2018-06-12T22:56:48.017Z,20.00
2018-06-12T22:59:16.590Z,19.90
2018-06-12T23:01:45.198Z,19.67
2018-06-12T23:04:13.757Z,20.83
2018-06-12T23:06:42.355Z,20.07
2018-06-12T23:09:10.955Z,20.03
2018-06-12T23:11:39.549Z,21.03
2018-06-12T23:14:08.401Z,21.43
2018-06-12T23:16:36.971Z,21.10
2018-06-12T23:19:05.616Z,21.70
2018-06-12T23:21:46.993Z,19.27
2018-06-12T23:24:15.610Z,18.93
2018-06-12T23:26:44.241Z,18.73
2018-06-12T23:29:12.861Z,18.93
2018-06-12T23:31:41.440Z,18.40
2018-06-12T23:34:10.069Z,19.47
2018-06-12T23:36:38.652Z,16.53
2018-06-12T23:39:08.412Z,18.07
2018-06-12T23:41:36.964Z,17.63
2018-06-12T23:44:05.594Z,19.00
2018-06-12T23:46:34.156Z,18.77
2018-06-12T23:49:02.771Z,18.60
2018-06-12T23:51:31.348Z,18.77
2018-06-12T23:53:59.953Z,18.80
2018-06-12T23:56:28.520Z,17.10
2018-06-12T23:58:57.110Z,17.93
